createdAt,value
2023-05-21T00:00:22.332Z,100.00
2023-05-21T00:02:49.550Z,100.00
2023-05-21T00:05:18.398Z,100.00
2023-05-21T00:07:47.239Z,100.00
2023-05-21T00:10:14.211Z,100.00
2023-05-21T00:12:42.038Z,100.00
2023-05-21T00:15:09.392Z,99.44
2023-05-21T00:17:37.009Z,98.47
2023-05-21T00:20:07.402Z,98.50
2023-05-21T00:22:34.091Z,100.00
2023-05-21T00:25:00.710Z,100.00
2023-05-21T00:27:27.219Z,100.00
2023-05-21T00:29:53.778Z,100.00
2023-05-21T00:32:20.561Z,100.00
2023-05-21T00:34:47.423Z,100.00
2023-05-21T00:37:15.348Z,100.00
2023-05-21T00:39:43.216Z,100.00
2023-05-21T00:42:09.959Z,100.00
2023-05-21T00:44:36.488Z,100.00
2023-05-21T00:47:04.265Z,100.00
2023-05-21T00:49:31.563Z,100.00
2023-05-21T00:52:01.731Z,100.00
2023-05-21T00:54:28.488Z,100.00
2023-05-21T00:56:56.259Z,100.00
2023-05-21T00:59:24.040Z,100.00
2023-05-21T01:01:56.050Z,99.59
2023-05-21T01:04:24.046Z,100.00
2023-05-21T01:06:53.442Z,99.82
2023-05-21T01:09:20.431Z,100.00
2023-05-21T01:11:50.344Z,100.00
2023-05-21T01:14:19.769Z,100.00
2023-05-21T01:16:49.645Z,100.00
2023-05-21T01:19:19.601Z,100.00
2023-05-21T01:21:51.039Z,100.00
2023-05-21T01:24:18.065Z,100.00
2023-05-21T01:26:46.588Z,100.00
2023-05-21T01:29:14.301Z,100.00
2023-05-21T01:31:51.979Z,100.00
2023-05-21T01:34:23.983Z,100.00
2023-05-21T01:37:00.073Z,100.00
2023-05-21T01:39:33.976Z,100.00
2023-05-21T01:42:03.763Z,100.00
2023-05-21T01:44:31.825Z,100.00
2023-05-21T01:46:59.831Z,100.00
2023-05-21T01:49:27.002Z,100.00
2023-05-21T01:51:53.855Z,100.00
2023-05-21T01:54:22.067Z,100.00
2023-05-21T01:56:49.770Z,100.00
2023-05-21T01:59:17.330Z,100.00
2023-05-21T02:01:44.076Z,100.00
2023-05-21T02:04:10.991Z,100.00
2023-05-21T02:06:39.597Z,100.00
2023-05-21T02:09:06.658Z,100.00
2023-05-21T02:11:33.223Z,100.00
2023-05-21T02:14:00.680Z,100.00
2023-05-21T02:16:27.289Z,100.00
2023-05-21T02:18:57.014Z,100.00
2023-05-21T02:21:23.749Z,100.00
2023-05-21T02:23:50.397Z,100.00
2023-05-21T02:26:17.919Z,100.00
2023-05-21T02:28:44.898Z,100.00
2023-05-21T02:31:12.551Z,100.00
2023-05-21T02:33:41.075Z,100.00
2023-05-21T02:36:13.240Z,100.00
2023-05-21T02:38:43.990Z,100.00
2023-05-21T02:41:11.615Z,100.00
2023-05-21T02:43:38.491Z,100.00
2023-05-21T02:46:06.919Z,100.00
2023-05-21T02:48:33.533Z,100.00
2023-05-21T02:51:00.151Z,100.00
2023-05-21T02:53:26.867Z,100.00
2023-05-21T02:55:53.471Z,100.00
2023-05-21T02:58:21.512Z,100.00
2023-05-21T03:00:48.074Z,100.00
2023-05-21T03:03:14.764Z,100.00
2023-05-21T03:05:41.498Z,100.00
2023-05-21T03:08:08.164Z,100.00
2023-05-21T03:10:34.751Z,100.00
2023-05-21T03:13:05.686Z,100.00
2023-05-21T03:15:33.508Z,100.00
2023-05-21T03:18:00.757Z,100.00
2023-05-21T03:20:28.939Z,100.00
2023-05-21T03:22:55.893Z,100.00
2023-05-21T03:25:25.294Z,100.00
2023-05-21T03:27:52.463Z,100.00
2023-05-21T03:30:19.208Z,100.00
2023-05-21T03:32:47.751Z,100.00
2023-05-21T03:35:14.314Z,100.00
2023-05-21T03:37:41.053Z,100.00
2023-05-21T03:40:08.572Z,100.00
2023-05-21T03:42:35.220Z,100.00
2023-05-21T03:45:02.020Z,100.00
2023-05-21T03:47:28.625Z,100.00
2023-05-21T03:49:55.249Z,100.00
2023-05-21T03:52:21.806Z,98.61
2023-05-21T03:54:48.393Z,100.00
2023-05-21T03:57:15.082Z,99.35
2023-05-21T03:59:41.752Z,99.61
2023-05-21T04:02:08.353Z,100.00
2023-05-21T04:04:35.109Z,99.55
2023-05-21T04:07:01.810Z,99.46
2023-05-21T04:09:28.436Z,100.00
2023-05-21T04:11:55.160Z,100.00
2023-05-21T04:14:23.361Z,99.76
2023-05-21T04:16:49.965Z,100.00
2023-05-21T04:19:16.649Z,100.00
2023-05-21T04:21:45.027Z,99.27
2023-05-21T04:24:12.178Z,99.29
2023-05-21T04:26:42.122Z,100.00
2023-05-21T04:29:10.020Z,100.00
2023-05-21T04:31:36.862Z,100.00
2023-05-21T04:34:03.576Z,100.00
2023-05-21T04:36:30.218Z,100.00
2023-05-21T04:38:56.898Z,99.75
2023-05-21T04:41:23.498Z,100.00
2023-05-21T04:43:55.034Z,99.87
2023-05-21T04:46:25.362Z,100.00
2023-05-21T04:48:55.205Z,100.00
2023-05-21T04:51:24.770Z,100.00
2023-05-21T04:53:51.556Z,99.81
2023-05-21T04:56:18.610Z,97.86
2023-05-21T04:58:49.248Z,97.30
2023-05-21T05:01:16.119Z,98.11
2023-05-21T05:03:42.788Z,98.70
2023-05-21T05:06:09.430Z,99.59
2023-05-21T05:08:36.273Z,99.55
2023-05-21T05:11:03.075Z,99.95
2023-05-21T05:13:29.670Z,100.00
2023-05-21T05:15:57.499Z,100.00
2023-05-21T05:18:24.325Z,100.00
2023-05-21T05:20:51.137Z,99.68
2023-05-21T05:23:17.782Z,99.87
2023-05-21T05:25:44.434Z,99.05
2023-05-21T05:28:11.224Z,99.23
2023-05-21T05:30:37.882Z,100.00
2023-05-21T05:33:04.723Z,100.00
2023-05-21T05:35:31.342Z,99.61
2023-05-21T05:37:58.517Z,99.13
2023-05-21T05:40:25.085Z,97.49
2023-05-21T05:42:52.852Z,94.42
2023-05-21T05:45:20.243Z,91.99
2023-05-21T05:47:46.982Z,90.78
2023-05-21T05:50:13.681Z,89.51
2023-05-21T05:52:40.220Z,90.82
2023-05-21T05:55:09.055Z,91.97
2023-05-21T05:57:36.070Z,91.87
2023-05-21T06:00:03.478Z,91.07
2023-05-21T06:02:30.258Z,89.78
2023-05-21T06:04:56.859Z,89.92
2023-05-21T06:07:23.393Z,89.45
2023-05-21T06:09:50.058Z,89.34
2023-05-21T06:12:16.726Z,86.26
2023-05-21T06:14:45.898Z,85.52
2023-05-21T06:17:12.547Z,83.67
2023-05-21T06:19:39.774Z,84.02
2023-05-21T06:22:06.422Z,82.26
2023-05-21T06:24:33.003Z,84.02
2023-05-21T06:26:59.620Z,84.39
2023-05-21T06:29:26.374Z,84.13
2023-05-21T06:31:52.987Z,83.52
2023-05-21T06:34:19.529Z,84.05
2023-05-21T06:36:46.075Z,83.31
2023-05-21T06:39:12.630Z,83.14
2023-05-21T06:41:39.204Z,85.33
2023-05-21T06:44:06.075Z,85.01
2023-05-21T06:46:32.790Z,84.17
2023-05-21T06:49:01.064Z,89.32
2023-05-21T06:51:27.605Z,90.54
2023-05-21T06:53:54.190Z,87.90
2023-05-21T06:56:22.021Z,89.89
2023-05-21T06:58:48.620Z,89.38
2023-05-21T07:01:15.381Z,90.87
2023-05-21T07:03:42.112Z,88.85
2023-05-21T07:06:08.804Z,88.21
2023-05-21T07:08:35.324Z,86.26
2023-05-21T07:11:01.983Z,83.34
2023-05-21T07:13:30.599Z,81.53
2023-05-21T07:15:57.204Z,82.25
2023-05-21T07:18:23.844Z,83.94
2023-05-21T07:20:50.534Z,87.80
2023-05-21T07:23:17.108Z,86.55
2023-05-21T07:25:43.720Z,85.68
2023-05-21T07:28:10.484Z,83.83
2023-05-21T07:30:37.083Z,81.60
2023-05-21T07:33:03.972Z,82.32
2023-05-21T07:35:30.739Z,83.61
2023-05-21T07:37:57.427Z,82.85
2023-05-21T07:40:23.989Z,81.52
2023-05-21T07:42:50.865Z,80.60
2023-05-21T07:45:17.562Z,79.83
2023-05-21T07:47:46.835Z,81.75
2023-05-21T07:50:14.821Z,84.29
2023-05-21T07:52:41.584Z,82.27
2023-05-21T07:55:09.380Z,83.12
2023-05-21T07:57:36.849Z,84.80
2023-05-21T08:00:05.525Z,82.49
2023-05-21T08:02:32.173Z,80.45
2023-05-21T08:04:59.113Z,80.88
2023-05-21T08:07:25.854Z,83.63
2023-05-21T08:09:54.083Z,81.52
2023-05-21T08:12:20.634Z,77.16
2023-05-21T08:14:47.268Z,76.73
2023-05-21T08:17:13.987Z,74.96
2023-05-21T08:19:40.664Z,72.91
2023-05-21T08:22:07.426Z,69.99
2023-05-21T08:24:34.677Z,75.89
2023-05-21T08:27:01.323Z,80.01
2023-05-21T08:29:27.956Z,79.27
2023-05-21T08:31:54.754Z,79.71
2023-05-21T08:34:21.455Z,80.73
2023-05-21T08:36:50.042Z,78.58
2023-05-21T08:39:16.982Z,75.15
2023-05-21T08:41:49.501Z,73.63
2023-05-21T08:44:21.794Z,70.96
2023-05-21T08:46:51.328Z,69.88
2023-05-21T08:49:21.449Z,71.45
2023-05-21T08:51:50.378Z,70.12
2023-05-21T08:54:17.083Z,68.78
2023-05-21T08:56:47.131Z,68.67
2023-05-21T08:59:15.005Z,71.59
2023-05-21T09:01:45.017Z,70.16
2023-05-21T09:04:20.907Z,75.45
2023-05-21T09:06:48.570Z,75.03
2023-05-21T09:09:27.975Z,75.88
2023-05-21T09:11:54.722Z,74.81
2023-05-21T09:14:22.457Z,74.05
2023-05-21T09:16:49.213Z,71.30
2023-05-21T09:19:15.916Z,73.22
2023-05-21T09:21:42.697Z,72.21
2023-05-21T09:24:09.921Z,77.19
2023-05-21T09:26:36.723Z,79.29
2023-05-21T09:29:04.020Z,70.44
2023-05-21T09:31:30.886Z,70.25
2023-05-21T09:33:57.699Z,69.98
2023-05-21T09:36:24.847Z,75.84
2023-05-21T09:38:52.371Z,74.07
2023-05-21T09:41:22.250Z,74.74
2023-05-21T09:43:49.279Z,75.17
2023-05-21T09:46:16.160Z,74.85
2023-05-21T09:48:43.381Z,75.93
2023-05-21T09:51:18.645Z,73.81
2023-05-21T09:53:53.135Z,72.12
2023-05-21T09:56:30.839Z,72.85
2023-05-21T09:59:04.366Z,69.69
2023-05-21T10:01:33.992Z,68.86
2023-05-21T10:04:03.091Z,71.69
2023-05-21T10:06:32.351Z,69.15
2023-05-21T10:09:05.604Z,72.18
2023-05-21T10:11:33.701Z,71.70
2023-05-21T10:14:09.324Z,73.26
2023-05-21T10:16:37.164Z,74.36
2023-05-21T10:19:05.351Z,69.42
2023-05-21T10:21:33.513Z,69.08
2023-05-21T10:24:02.750Z,72.36
2023-05-21T10:26:30.479Z,72.34
2023-05-21T10:29:00.609Z,71.89
2023-05-21T10:31:30.483Z,74.09
2023-05-21T10:33:57.917Z,74.05
2023-05-21T10:36:25.974Z,74.01
2023-05-21T10:38:53.322Z,71.08
2023-05-21T10:41:22.031Z,70.34
2023-05-21T10:44:11.798Z,70.21
2023-05-21T10:47:01.471Z,71.70
2023-05-21T10:50:13.100Z,71.00
2023-05-21T10:52:58.120Z,66.80
2023-05-21T10:55:48.849Z,68.69
2023-05-21T10:58:42.093Z,66.08
2023-05-21T11:01:09.894Z,69.24
2023-05-21T11:03:37.867Z,65.63
2023-05-21T11:06:08.638Z,65.92
2023-05-21T11:08:37.150Z,65.29
2023-05-21T11:11:05.034Z,64.55
2023-05-21T11:13:52.221Z,66.73
2023-05-21T11:16:21.185Z,66.49
2023-05-21T11:18:47.750Z,69.65
2023-05-21T11:21:16.004Z,67.90
2023-05-21T11:23:51.624Z,66.53
2023-05-21T11:26:27.082Z,66.55
2023-05-21T11:29:07.417Z,65.84
2023-05-21T11:31:41.282Z,61.85
2023-05-21T11:34:11.239Z,60.10
2023-05-21T11:36:39.090Z,61.52
2023-05-21T11:39:22.207Z,61.85
2023-05-21T11:42:01.586Z,63.34
2023-05-21T11:44:46.811Z,61.66
2023-05-21T11:47:21.502Z,61.86
2023-05-21T11:49:49.533Z,64.03
2023-05-21T11:52:16.604Z,66.62
2023-05-21T11:54:51.914Z,62.46
2023-05-21T11:57:19.615Z,62.78
2023-05-21T11:59:47.234Z,62.41
2023-05-21T12:02:21.659Z,61.35
2023-05-21T12:04:50.701Z,61.25
2023-05-21T12:07:19.380Z,62.50
2023-05-21T12:09:50.417Z,60.76
2023-05-21T12:12:22.369Z,61.36
2023-05-21T12:14:53.563Z,60.10
2023-05-21T12:17:24.288Z,61.88
2023-05-21T12:19:54.708Z,63.76
2023-05-21T12:22:21.785Z,58.39
2023-05-21T12:24:48.884Z,59.10
2023-05-21T12:27:17.000Z,57.08
2023-05-21T12:29:45.190Z,56.96
2023-05-21T12:32:14.052Z,57.72
2023-05-21T12:34:54.712Z,59.31
2023-05-21T12:37:23.715Z,58.90
2023-05-21T12:39:52.593Z,59.53
2023-05-21T12:42:36.008Z,58.97
2023-05-21T12:45:09.725Z,56.76
2023-05-21T12:47:37.239Z,57.44
2023-05-21T12:50:08.374Z,59.98
2023-05-21T12:52:35.123Z,57.89
2023-05-21T12:55:01.910Z,55.20
2023-05-21T12:57:36.969Z,55.39
2023-05-21T13:00:08.950Z,52.33
2023-05-21T13:02:40.737Z,51.35
2023-05-21T13:05:18.335Z,51.59
2023-05-21T13:07:47.610Z,52.62
2023-05-21T13:10:16.523Z,53.58
2023-05-21T13:12:44.567Z,50.38
2023-05-21T13:15:11.930Z,55.38
2023-05-21T13:17:38.790Z,54.13
2023-05-21T13:20:12.677Z,53.36
2023-05-21T13:22:46.698Z,52.27
2023-05-21T13:25:21.220Z,55.13
2023-05-21T13:27:49.526Z,50.47
2023-05-21T13:30:16.157Z,51.07
2023-05-21T13:32:43.668Z,50.45
2023-05-21T13:35:12.106Z,50.76
2023-05-21T13:37:40.046Z,48.37
2023-05-21T13:40:15.302Z,47.46
2023-05-21T13:42:47.698Z,49.17
2023-05-21T13:45:16.474Z,49.65
2023-05-21T13:47:44.824Z,49.78
2023-05-21T13:50:12.039Z,45.97
2023-05-21T13:52:38.809Z,45.88
2023-05-21T13:55:06.450Z,51.67
2023-05-21T13:57:33.339Z,48.60
2023-05-21T14:00:01.002Z,47.38
2023-05-21T14:02:27.806Z,41.52
2023-05-21T14:04:54.433Z,45.52
2023-05-21T14:07:22.499Z,41.77
2023-05-21T14:09:49.621Z,41.33
2023-05-21T14:12:17.039Z,39.42
2023-05-21T14:14:43.751Z,39.14
2023-05-21T14:17:10.371Z,42.86
2023-05-21T14:19:37.035Z,40.63
2023-05-21T14:22:03.618Z,44.34
2023-05-21T14:24:30.202Z,46.49
2023-05-21T14:26:57.023Z,41.70
2023-05-21T14:29:23.680Z,39.39
2023-05-21T14:31:50.365Z,39.20
2023-05-21T14:34:17.142Z,34.96
2023-05-21T14:36:43.713Z,32.50
2023-05-21T14:39:10.258Z,29.11
2023-05-21T14:41:39.705Z,27.69
2023-05-21T14:44:06.419Z,32.86
2023-05-21T14:46:33.150Z,33.81
2023-05-21T14:49:00.753Z,34.88
2023-05-21T14:51:27.502Z,33.21
2023-05-21T14:53:54.210Z,33.06
2023-05-21T14:56:22.114Z,30.84
2023-05-21T14:58:48.956Z,28.00
2023-05-21T15:01:15.548Z,32.67
2023-05-21T15:03:42.367Z,29.39
2023-05-21T15:06:09.329Z,29.04
2023-05-21T15:08:36.036Z,29.23
2023-05-21T15:11:02.614Z,30.24
2023-05-21T15:13:29.167Z,34.01
2023-05-21T15:15:55.920Z,29.83
2023-05-21T15:18:24.767Z,30.49
2023-05-21T15:20:51.567Z,29.65
2023-05-21T15:23:18.591Z,28.76
2023-05-21T15:25:45.957Z,28.28
2023-05-21T15:28:13.090Z,29.41
2023-05-21T15:30:40.351Z,28.47
2023-05-21T15:33:07.044Z,27.90
2023-05-21T15:35:35.540Z,28.20
2023-05-21T15:38:02.848Z,28.81
2023-05-21T15:40:29.482Z,27.16
2023-05-21T15:42:56.312Z,28.50
2023-05-21T15:45:23.028Z,28.18
2023-05-21T15:47:49.609Z,27.42
2023-05-21T15:50:16.362Z,27.14
2023-05-21T15:52:43.178Z,22.71
2023-05-21T15:55:10.193Z,26.30
2023-05-21T15:57:36.832Z,25.95
2023-05-21T16:00:04.985Z,25.33
2023-05-21T16:02:31.764Z,24.96
2023-05-21T16:04:58.497Z,24.02
2023-05-21T16:07:25.171Z,25.58
2023-05-21T16:09:51.822Z,26.84
2023-05-21T16:12:18.498Z,28.20
2023-05-21T16:14:48.483Z,28.67
2023-05-21T16:17:15.122Z,28.08
2023-05-21T16:19:41.912Z,29.91
2023-05-21T16:22:10.646Z,29.51
2023-05-21T16:24:37.722Z,30.72
2023-05-21T16:27:05.030Z,28.59
2023-05-21T16:29:31.895Z,30.21
2023-05-21T16:31:58.534Z,31.63
2023-05-21T16:34:25.226Z,36.58
2023-05-21T16:36:51.860Z,38.42
2023-05-21T16:39:18.535Z,40.79
2023-05-21T16:41:45.087Z,43.42
2023-05-21T16:44:11.874Z,42.86
2023-05-21T16:46:38.822Z,44.16
2023-05-21T16:49:05.529Z,43.63
2023-05-21T16:51:32.187Z,44.88
2023-05-21T16:53:58.811Z,47.49
2023-05-21T16:56:27.242Z,48.74
2023-05-21T16:58:53.862Z,50.47
2023-05-21T17:01:20.546Z,49.66
2023-05-21T17:03:47.267Z,50.54
2023-05-21T17:06:14.909Z,51.10
2023-05-21T17:08:42.440Z,50.36
2023-05-21T17:11:09.389Z,51.57
2023-05-21T17:13:36.061Z,52.59
2023-05-21T17:16:02.733Z,50.32
2023-05-21T17:18:29.344Z,50.92
2023-05-21T17:20:56.487Z,50.58
2023-05-21T17:23:23.161Z,51.36
2023-05-21T17:25:49.916Z,49.67
2023-05-21T17:28:16.707Z,50.33
2023-05-21T17:30:43.330Z,49.04
2023-05-21T17:33:10.567Z,49.78
2023-05-21T17:35:37.451Z,49.70
2023-05-21T17:38:04.444Z,50.20
2023-05-21T17:40:31.027Z,50.28
2023-05-21T17:42:57.640Z,50.31
2023-05-21T17:45:24.211Z,51.40
2023-05-21T17:47:51.060Z,52.61
2023-05-21T17:50:18.055Z,51.17
2023-05-21T17:52:44.658Z,50.76
2023-05-21T17:55:11.330Z,52.82
2023-05-21T17:57:37.919Z,51.89
2023-05-21T18:00:06.784Z,52.71
2023-05-21T18:02:33.421Z,52.66
2023-05-21T18:05:00.032Z,55.58
2023-05-21T18:07:26.786Z,53.46
2023-05-21T18:09:53.342Z,54.20
2023-05-21T18:12:19.906Z,55.90
2023-05-21T18:14:46.489Z,57.61
2023-05-21T18:17:13.185Z,57.86
2023-05-21T18:19:41.084Z,57.51
2023-05-21T18:22:07.957Z,60.77
2023-05-21T18:24:34.501Z,63.77
2023-05-21T18:27:01.117Z,64.91
2023-05-21T18:29:27.910Z,66.39
2023-05-21T18:31:54.719Z,66.04
2023-05-21T18:34:21.383Z,70.04
2023-05-21T18:36:48.234Z,71.98
2023-05-21T18:39:15.036Z,72.71
2023-05-21T18:41:41.836Z,78.78
2023-05-21T18:44:08.556Z,80.82
2023-05-21T18:46:35.179Z,78.34
2023-05-21T18:49:01.961Z,80.54
2023-05-21T18:51:28.567Z,81.47
2023-05-21T18:53:55.139Z,83.70
2023-05-21T18:56:21.985Z,85.13
2023-05-21T18:58:48.797Z,84.81
2023-05-21T19:01:16.117Z,87.17
2023-05-21T19:03:42.764Z,87.70
2023-05-21T19:06:09.506Z,89.39
2023-05-21T19:08:36.102Z,88.56
2023-05-21T19:11:02.930Z,87.85
2023-05-21T19:13:29.617Z,85.71
2023-05-21T19:15:58.357Z,86.61
2023-05-21T19:18:31.655Z,88.89
2023-05-21T19:21:00.160Z,89.88
2023-05-21T19:23:26.902Z,91.01
2023-05-21T19:25:53.536Z,89.17
2023-05-21T19:28:20.185Z,85.83
2023-05-21T19:30:46.752Z,84.64
2023-05-21T19:33:13.600Z,84.71
2023-05-21T19:35:42.134Z,83.61
2023-05-21T19:38:12.095Z,82.48
2023-05-21T19:40:38.889Z,79.31
2023-05-21T19:43:05.737Z,79.87
2023-05-21T19:45:32.674Z,81.44
2023-05-21T19:47:59.887Z,83.15
2023-05-21T19:50:28.604Z,85.71
2023-05-21T19:52:57.234Z,85.42
2023-05-21T19:55:24.750Z,85.75
2023-05-21T19:57:51.622Z,86.10
2023-05-21T20:00:18.860Z,86.48
2023-05-21T20:02:46.131Z,86.44
2023-05-21T20:05:12.990Z,86.67
2023-05-21T20:07:39.753Z,85.49
2023-05-21T20:10:07.472Z,82.20
2023-05-21T20:12:34.148Z,82.71
2023-05-21T20:15:01.024Z,83.95
2023-05-21T20:17:28.773Z,84.72
2023-05-21T20:19:57.296Z,84.89
2023-05-21T20:22:23.945Z,86.35
2023-05-21T20:24:50.745Z,83.57
2023-05-21T20:27:19.569Z,82.79
2023-05-21T20:29:46.384Z,82.86
2023-05-21T20:32:13.349Z,82.53
2023-05-21T20:34:54.337Z,80.65
2023-05-21T20:37:27.180Z,80.32
2023-05-21T20:39:57.951Z,78.33
2023-05-21T20:42:28.630Z,78.75
2023-05-21T20:44:58.813Z,79.27
2023-05-21T20:47:29.804Z,81.73
2023-05-21T20:49:58.040Z,83.41
2023-05-21T20:52:25.059Z,83.72
2023-05-21T20:54:54.613Z,83.94
2023-05-21T20:57:26.191Z,85.55
2023-05-21T20:59:53.905Z,86.29
2023-05-21T21:02:21.320Z,87.66
2023-05-21T21:04:49.133Z,87.03
2023-05-21T21:07:18.169Z,88.39
2023-05-21T21:09:49.081Z,88.20
2023-05-21T21:12:26.114Z,87.98
2023-05-21T21:14:53.917Z,87.69
2023-05-21T21:17:20.939Z,86.82
2023-05-21T21:19:47.634Z,86.93
2023-05-21T21:22:15.552Z,85.82
2023-05-21T21:24:42.349Z,86.11
2023-05-21T21:27:09.119Z,86.05
2023-05-21T21:29:35.692Z,86.41
2023-05-21T21:32:02.433Z,84.00
2023-05-21T21:34:29.175Z,83.56
2023-05-21T21:36:56.074Z,83.84
2023-05-21T21:39:22.706Z,83.39
2023-05-21T21:41:49.374Z,84.33
2023-05-21T21:44:15.959Z,85.41
2023-05-21T21:46:42.535Z,82.67
2023-05-21T21:49:09.150Z,83.93
2023-05-21T21:51:37.056Z,83.30
2023-05-21T21:54:04.214Z,82.44
2023-05-21T21:56:31.020Z,81.74
2023-05-21T21:58:57.768Z,84.31
2023-05-21T22:01:24.948Z,87.81
2023-05-21T22:03:51.590Z,87.28
2023-05-21T22:06:18.227Z,87.07
2023-05-21T22:08:44.915Z,86.45
2023-05-21T22:11:11.776Z,87.54
2023-05-21T22:13:38.559Z,88.77
2023-05-21T22:16:05.638Z,87.74
2023-05-21T22:18:40.808Z,85.13
2023-05-21T22:21:10.419Z,85.15
2023-05-21T22:23:38.469Z,86.03
2023-05-21T22:26:05.401Z,85.80
2023-05-21T22:28:32.024Z,86.51
2023-05-21T22:30:59.216Z,87.52
2023-05-21T22:33:26.669Z,88.86
2023-05-21T22:35:54.224Z,89.50
2023-05-21T22:38:20.921Z,91.05
2023-05-21T22:40:47.599Z,92.59
2023-05-21T22:43:14.373Z,95.44
2023-05-21T22:45:41.256Z,95.62
2023-05-21T22:48:09.080Z,95.62
2023-05-21T22:50:36.194Z,95.95
2023-05-21T22:53:03.067Z,97.29
2023-05-21T22:55:29.853Z,96.85
2023-05-21T22:57:56.498Z,96.83
2023-05-21T23:00:23.645Z,96.83
2023-05-21T23:02:53.838Z,98.25
2023-05-21T23:05:21.105Z,97.50
2023-05-21T23:07:47.910Z,97.47
2023-05-21T23:10:14.604Z,97.12
2023-05-21T23:12:41.410Z,98.24
2023-05-21T23:15:10.138Z,97.66
2023-05-21T23:17:37.857Z,98.42
2023-05-21T23:20:06.134Z,97.94
2023-05-21T23:22:32.910Z,97.87
2023-05-21T23:24:59.647Z,98.47
2023-05-21T23:27:26.334Z,97.09
2023-05-21T23:29:52.982Z,97.48
2023-05-21T23:32:19.719Z,98.42
2023-05-21T23:34:46.417Z,97.53
2023-05-21T23:37:13.147Z,97.73
2023-05-21T23:39:39.918Z,98.17
2023-05-21T23:42:06.904Z,97.64
2023-05-21T23:44:33.562Z,98.20
2023-05-21T23:47:00.188Z,94.88
2023-05-21T23:49:26.754Z,93.61
2023-05-21T23:51:53.705Z,95.11
2023-05-21T23:54:20.307Z,97.06
2023-05-21T23:56:46.937Z,96.81
2023-05-21T23:59:13.948Z,96.53
